Time;durP1;ratioP1;P1;durP2;ratioP2;P2;SDS_P1;SDS_P2;PMS_P1;PMS_P2;Temp;Humidity;BMP_temperature;BMP_pressure;BME280_temperature;BME280_humidity;BME280_pressure;Samples;Min_cycle;Max_cycle;Signal;HPM_P1;HPM_P2
2022/08/30 03:22:45;;;;;;;;;;;;;;;11.08;100.00;99752.66;6270751;22;20258;-90
2022/08/30 03:25:11;;;;;;;;;;;;;;;11.12;100.00;99752.53;6250241;22;19915;-90
2022/08/30 03:27:36;;;;;;;;;;;;;;;11.27;100.00;99743.88;6250040;22;19907;-91
2022/08/30 03:30:03;;;;;;;;;;;;;;;11.21;100.00;99746.81;6277034;22;20330;-90
2022/08/30 03:32:28;;;;;;;;;;;;;;;11.18;100.00;99749.59;6277093;22;20314;-89
2022/08/30 03:34:53;;;;;;;;;;;;;;;11.30;100.00;99740.22;6248218;22;20103;-89
2022/08/30 03:37:19;;;;;;;;;;;;;;;11.31;100.00;99732.16;6275638;22;19965;-89
2022/08/30 03:39:57;;;;;;;;;;;;;;;;;;;;;
2022/08/30 03:42:27;;;;;;;;;;;;;;;11.23;100.00;99734.31;6276985;22;19970;-89
2022/08/30 03:44:55;;;;;;;;;;;;;;;11.39;100.00;99735.34;6243064;23;19911;-87
2022/08/30 03:47:20;;;;;;;;;;;;;;;11.38;100.00;99733.63;6243012;23;19912;-88
2022/08/30 03:49:46;;;;;;;;;;;;;;;11.29;100.00;99736.69;6216097;23;19923;-88
2022/08/30 03:52:11;;;;;;;;;;;;;;;11.25;100.00;99737.78;6243126;22;20240;-89
2022/08/30 03:54:42;;;;;;;;;;;;;;;11.43;100.00;99734.25;6243065;23;20346;-87
2022/08/30 03:57:07;;;;;;;;;;;;;;;11.34;100.00;99742.63;6243014;23;19961;-87
2022/08/30 03:59:32;;;;;;;;;;;;;;;11.27;100.00;99746.53;6243062;23;19916;-87
2022/08/30 04:02:00;;;;;;;;;;;;;;;11.34;100.00;99749.75;6242977;23;20286;-88
2022/08/30 04:04:48;;;;;;;;;;;;;;;11.46;100.00;99746.53;6215966;23;20246;-88
2022/08/30 04:07:13;;;;;;;;;;;;;;;11.41;100.00;99752.03;6242309;23;20007;-89
2022/08/30 04:09:38;;;;;;;;;;;;;;;11.32;100.00;99746.31;6262341;22;19986;-87
2022/08/30 04:12:04;;;;;;;;;;;;;;;11.37;100.00;99747.81;6276359;22;20343;-89
2022/08/30 04:14:29;;;;;;;;;;;;;;;11.45;100.00;99742.13;6274531;22;19911;-88
2022/08/30 04:16:54;;;;;;;;;;;;;;;11.35;100.00;99747.03;6249609;22;20380;-88
2022/08/30 04:19:20;;;;;;;;;;;;;;;11.30;100.00;99751.69;6247793;22;19911;-88
2022/08/30 04:21:45;;;;;;;;;;;;;;;11.46;100.00;99746.53;6249193;22;19994;-88
2022/08/30 04:24:11;;;;;;;;;;;;;;;11.41;100.00;99748.53;6276517;22;19994;-88
2022/08/30 04:26:37;;;;;;;;;;;;;;;11.34;100.00;99752.41;6276222;22;20346;-88
2022/08/30 04:29:02;;;;;;;;;;;;;;;11.48;100.00;99746.44;6249318;22;19912;-88
2022/08/30 04:31:27;;;;;;;;;;;;;;;11.47;100.00;99750.03;6276220;22;19918;-88
2022/08/30 04:33:52;;;;;;;;;;;;;;;11.40;100.00;99752.97;6249368;22;19918;-87
2022/08/30 04:36:18;;;;;;;;;;;;;;;11.38;100.00;99748.69;6247440;22;19911;-87
2022/08/30 04:38:44;;;;;;;;;;;;;;;11.52;100.00;99746.25;6276022;22;19915;-88
2022/08/30 04:41:11;;;;;;;;;;;;;;;11.38;100.00;99749.53;6249057;22;19921;-87
2022/08/30 04:43:36;;;;;;;;;;;;;;;11.26;100.00;99750.09;6248714;22;19961;-87
2022/08/30 07:48:41;;;;;;;;;;;;;;;11.01;100.00;99809.56;6194225;22;19973;-86
2022/08/30 07:51:11;;;;;;;;;;;;;;;11.01;100.00;99801.59;6277053;22;19919;-88
2022/08/30 07:53:36;;;;;;;;;;;;;;;11.20;100.00;99806.06;6276301;22;20247;-88
2022/08/30 07:56:27;;;;;;;;;;;;;;;12.38;100.00;99801.41;6275665;22;19912;-88
2022/08/30 07:58:52;;;;;;;;;;;;;;;13.13;100.00;99802.00;6275190;22;19911;-84
2022/08/30 08:01:21;;;;;;;;;;;;;;;11.81;100.00;99805.88;6274891;22;19943;-84
2022/08/30 08:03:49;;;;;;;;;;;;;;;11.71;100.00;99804.63;6276009;22;19911;-84
2022/08/30 08:06:19;;;;;;;;;;;;;;;11.74;100.00;99801.81;6276245;22;19939;-88
2022/08/30 08:08:52;;;;;;;;;;;;;;;11.67;100.00;99808.34;6275081;22;19926;-83
2022/08/30 08:11:24;;;;;;;;;;;;;;;11.58;100.00;99799.03;6247095;22;19922;-85
2022/08/30 08:13:51;;;;;;;;;;;;;;;16.71;100.00;99790.22;6276032;22;19911;-83
2022/08/30 08:16:25;;;;;;;;;;;;;;;17.75;100.00;99791.03;6274745;22;19923;-88
2022/08/30 08:19:01;;;;;;;;;;;;;;;13.35;100.00;99791.94;6272958;22;19911;-85
2022/08/30 08:22:05;;;;;;;;;;;;;;;;;;;;;
2022/08/30 08:24:45;;;;;;;;;;;;;;;12.17;100.00;99810.41;6275870;22;19994;-88
2022/08/30 08:27:42;;;;;;;;;;;;;;;11.96;100.00;99804.31;6247756;22;19923;-88
2022/08/30 08:30:23;;;;;;;;;;;;;;;;;;;;;
2022/08/30 08:33:02;;;;;;;;;;;;;;;11.94;100.00;99794.72;6274238;22;19994;-86
2022/08/30 08:36:00;;;;;;;;;;;;;;;;;;;;;
2022/08/30 08:41:49;;;;;;;;;;;;;;;11.82;100.00;99786.38;6256768;22;19926;-85
2022/08/30 08:44:55;;;;;;;;;;;;;;;11.74;100.00;99791.19;6275653;22;19917;-87
2022/08/30 08:47:43;;;;;;;;;;;;;;;11.66;100.00;99790.69;6210765;23;19919;-86
2022/08/30 08:50:36;;;;;;;;;;;;;;;11.63;100.00;99789.03;6153129;23;19920;-89
2022/08/30 08:53:36;;;;;;;;;;;;;;;11.66;100.00;99781.88;6236696;22;19921;-87
2022/08/30 08:56:38;;;;;;;;;;;;;;;11.72;100.00;99781.56;6263740;22;20693;-86
2022/08/30 08:59:12;;;;;;;;;;;;;;;11.77;100.00;99775.09;6238387;22;19915;-86
2022/08/30 09:01:50;;;;;;;;;;;;;;;11.69;100.00;99779.06;6274620;22;19911;-87
2022/08/30 09:04:36;;;;;;;;;;;;;;;11.60;100.00;99777.72;6275254;22;19934;-86
2022/08/30 09:10:14;;;;;;;;;;;;;;;11.54;100.00;99768.25;6272220;22;20251;-88
2022/08/30 09:12:39;;;;;;;;;;;;;;;11.76;100.00;99760.13;6248938;22;20651;-85
2022/08/30 09:15:26;;;;;;;;;;;;;;;11.75;100.00;99758.41;6247252;22;19942;-86
2022/08/30 09:17:54;;;;;;;;;;;;;;;11.71;100.00;99751.53;6246062;22;19997;-85
2022/08/30 09:20:51;;;;;;;;;;;;;;;11.61;100.00;99758.19;6275574;22;19912;-85
2022/08/30 09:24:10;;;;;;;;;;;;;;;;;;;;;
2022/08/30 09:26:29;;;;;;;;;;;;;;;12.36;100.00;99748.34;6246880;22;19915;-79
2022/08/30 09:28:55;;;;;;;;;;;;;;;12.78;100.00;99755.06;6274685;22;19988;-84
2022/08/30 09:31:23;;;;;;;;;;;;;;;11.71;100.00;99740.91;6274194;22;19919;-84
2022/08/30 09:34:04;;;;;;;;;;;;;;;11.27;100.00;99746.53;6274988;22;20289;-85
2022/08/30 09:37:07;;;;;;;;;;;;;;;11.34;100.00;99745.28;6273462;22;19958;-84
2022/08/30 09:42:56;;;;;;;;;;;;;;;11.09;100.00;99746.44;6242905;22;19939;-84
2022/08/30 09:45:43;;;;;;;;;;;;;;;;;;;;;
2022/08/30 09:48:47;;;;;;;;;;;;;;;;;;;;;
2022/08/30 09:51:44;;;;;;;;;;;;;;;;;;;;;
2022/08/30 09:54:48;;;;;;;;;;;;;;;10.79;100.00;99732.78;6274525;22;19990;-85
2022/08/30 09:57:44;;;;;;;;;;;;;;;;;;;;;
2022/08/30 10:00:16;;;;;;;;;;;;;;;11.00;100.00;99730.94;6275857;22;19994;-85
2022/08/30 10:02:44;;;;;;;;;;;;;;;14.27;100.00;99716.63;6272122;22;19957;-83
2022/08/30 10:05:31;;;;;;;;;;;;;;;12.05;100.00;99726.00;6274818;22;19911;-84
2022/08/30 10:07:57;;;;;;;;;;;;;;;11.50;100.00;99740.13;6274286;22;20009;-83
2022/08/30 10:10:54;;;;;;;;;;;;;;;;;;;;;
2022/08/30 10:13:47;;;;;;;;;;;;;;;11.29;100.00;99722.56;6274231;22;19994;-84
2022/08/30 10:16:48;;;;;;;;;;;;;;;11.17;100.00;99729.28;6275332;22;19915;-84
2022/08/30 10:19:31;;;;;;;;;;;;;;;11.07;100.00;99729.75;6277479;22;19919;-89
2022/08/30 10:22:12;;;;;;;;;;;;;;;11.01;100.00;99732.69;6275214;22;19923;-84
2022/08/30 10:25:03;;;;;;;;;;;;;;;11.12;100.00;99736.59;6277149;22;19915;-88
2022/08/30 10:27:41;;;;;;;;;;;;;;;11.18;100.00;99731.88;6226390;22;19931;-83
2022/08/30 10:30:09;;;;;;;;;;;;;;;11.14;100.00;99726.81;6275430;22;19915;-84
2022/08/30 10:32:58;;;;;;;;;;;;;;;11.02;100.00;99721.13;6273817;22;19911;-85
2022/08/30 10:35:26;;;;;;;;;;;;;;;11.01;100.00;99722.06;6250152;22;19911;-84
2022/08/30 10:38:29;;;;;;;;;;;;;;;11.23;100.00;99723.72;6277001;22;19915;-84
2022/08/30 10:41:14;;;;;;;;;;;;;;;11.20;100.00;99716.78;6218251;22;19911;-85
2022/08/30 10:44:17;;;;;;;;;;;;;;;11.23;100.00;99716.63;6277331;22;19941;-84
2022/08/30 10:47:03;;;;;;;;;;;;;;;11.24;100.00;99717.50;6211897;23;19912;-87
2022/08/30 10:49:41;;;;;;;;;;;;;;;11.23;100.00;99713.09;6252475;22;20006;-87
2022/08/30 10:52:22;;;;;;;;;;;;;;;11.33;100.00;99711.75;6249159;22;20212;-86
2022/08/30 10:54:53;;;;;;;;;;;;;;;11.41;100.00;99711.41;6275189;22;20331;-84
2022/08/30 10:57:19;;;;;;;;;;;;;;;11.40;100.00;99709.66;6276398;22;19994;-85
2022/08/30 10:59:51;;;;;;;;;;;;;;;11.38;100.00;99708.88;6249925;22;19942;-85
2022/08/30 11:02:37;;;;;;;;;;;;;;;11.55;100.00;99708.06;6275049;22;19991;-85
2022/08/30 11:05:08;;;;;;;;;;;;;;;11.58;100.00;99708.81;6274641;22;19918;-86
2022/08/30 11:08:37;;;;;;;;;;;;;;;;;;;;;
2022/08/30 11:11:01;;;;;;;;;;;;;;;11.38;100.00;99700.94;6268867;22;20472;-85
2022/08/30 11:13:29;;;;;;;;;;;;;;;11.37;100.00;99700.06;6276601;22;20312;-88
2022/08/30 11:16:14;;;;;;;;;;;;;;;11.53;100.00;99705.47;6276938;22;20212;-86
2022/08/30 11:19:01;;;;;;;;;;;;;;;;;;;;;
2022/08/30 11:21:42;;;;;;;;;;;;;;;11.37;100.00;99689.44;6276686;22;19991;-85
2022/08/30 11:24:23;;;;;;;;;;;;;;;11.28;100.00;99692.56;6276414;22;19915;-85
2022/08/30 11:26:56;;;;;;;;;;;;;;;11.36;100.00;99686.84;6276216;22;20292;-84
2022/08/30 11:29:37;;;;;;;;;;;;;;;11.58;100.00;99687.56;6276335;22;19942;-84
2022/08/30 11:32:17;;;;;;;;;;;;;;;11.50;100.00;99686.22;6275424;22;19911;-84
2022/08/30 11:34:50;;;;;;;;;;;;;;;11.36;100.00;99686.84;6275757;22;19911;-90
2022/08/30 11:37:51;;;;;;;;;;;;;;;11.34;100.00;99688.72;6276397;22;19908;-85
2022/08/30 11:40:21;;;;;;;;;;;;;;;11.37;100.00;99685.94;6212531;23;20286;-85
2022/08/30 11:43:09;;;;;;;;;;;;;;;11.55;100.00;99677.09;6238133;22;19994;-87
2022/08/30 11:45:44;;;;;;;;;;;;;;;11.56;100.00;99683.25;6276763;22;20354;-85
2022/08/30 11:48:30;;;;;;;;;;;;;;;11.48;100.00;99677.47;6275108;22;19978;-85
2022/08/30 11:51:18;;;;;;;;;;;;;;;11.41;100.00;99674.25;6217722;22;19919;-83
2022/08/30 11:53:54;;;;;;;;;;;;;;;11.45;100.00;99671.38;6276397;22;19911;-83
2022/08/30 11:56:27;;;;;;;;;;;;;;;11.57;100.00;99671.72;6276043;22;19911;-84
2022/08/30 11:59:27;;;;;;;;;;;;;;;11.57;100.00;99666.41;6276178;22;19916;-83
2022/08/30 12:01:53;;;;;;;;;;;;;;;11.48;100.00;99664.22;6210877;23;19967;-84
2022/08/30 12:04:19;;;;;;;;;;;;;;;11.36;100.00;99669.16;6262897;22;19963;-83
2022/08/30 12:06:51;;;;;;;;;;;;;;;11.43;100.00;99661.78;6274685;22;20295;-83
2022/08/30 12:09:17;;;;;;;;;;;;;;;11.55;100.00;99657.66;6275332;22;19943;-83
2022/08/30 12:11:54;;;;;;;;;;;;;;;11.45;100.00;99652.81;6275253;22;19922;-83
2022/08/30 12:14:32;;;;;;;;;;;;;;;11.41;100.00;99659.19;6275740;22;19916;-84
2022/08/30 12:19:43;;;;;;;;;;;;;;;11.49;100.00;99650.88;6274859;22;19918;-85
2022/08/30 12:22:14;;;;;;;;;;;;;;;11.60;100.00;99660.97;6275348;22;20677;-82
2022/08/30 12:24:42;;;;;;;;;;;;;;;11.46;100.00;99651.00;6275542;22;20235;-82
2022/08/30 12:27:25;;;;;;;;;;;;;;;11.41;100.00;99653.88;6274977;22;19911;-82
2022/08/30 12:30:04;;;;;;;;;;;;;;;11.50;100.00;99657.88;6276667;22;19911;-83
2022/08/30 12:32:30;;;;;;;;;;;;;;;11.59;100.00;99656.56;6274348;22;19918;-82
2022/08/30 12:34:58;;;;;;;;;;;;;;;11.47;100.00;99662.47;6275094;22;19915;-82
2022/08/30 12:37:24;;;;;;;;;;;;;;;11.42;100.00;99652.97;6275076;22;19912;-83
2022/08/30 12:40:09;;;;;;;;;;;;;;;11.53;100.00;99656.88;6274848;22;19911;-83
2022/08/30 12:42:36;;;;;;;;;;;;;;;11.61;100.00;99649.38;6248077;22;19933;-83
2022/08/30 12:45:04;;;;;;;;;;;;;;;11.48;100.00;99654.44;6276178;22;19911;-85
2022/08/30 12:47:42;;;;;;;;;;;;;;;11.44;100.00;99651.09;6273368;22;20232;-84
2022/08/30 12:50:09;;;;;;;;;;;;;;;11.54;100.00;99648.84;6247146;22;20327;-84
2022/08/30 12:52:39;;;;;;;;;;;;;;;11.58;100.00;99652.19;6273569;22;19918;-85
2022/08/30 12:55:10;;;;;;;;;;;;;;;11.45;100.00;99655.47;6274108;22;19911;-84
2022/08/30 12:57:38;;;;;;;;;;;;;;;11.41;100.00;99655.69;6275108;22;20355;-86
2022/08/30 13:00:08;;;;;;;;;;;;;;;11.59;100.00;99645.97;6276349;22;19911;-84
2022/08/30 13:02:44;;;;;;;;;;;;;;;11.52;100.00;99649.84;6273784;22;19914;-84
2022/08/30 13:05:30;;;;;;;;;;;;;;;11.43;100.00;99641.41;6247041;22;19919;-84
2022/08/30 13:08:07;;;;;;;;;;;;;;;11.42;100.00;99645.00;6275260;22;19982;-86
2022/08/30 13:10:33;;;;;;;;;;;;;;;11.54;100.00;99645.34;6275210;22;19911;-85
2022/08/30 13:12:59;;;;;;;;;;;;;;;11.59;100.00;99635.34;6275148;22;20002;-85
2022/08/30 13:15:31;;;;;;;;;;;;;;;11.49;100.00;99642.03;6273166;22;20317;-86
2022/08/30 13:18:10;;;;;;;;;;;;;;;11.45;100.00;99639.56;6274193;22;19911;-85
2022/08/30 13:20:36;;;;;;;;;;;;;;;11.53;100.00;99631.19;6275075;22;19911;-84
2022/08/30 13:23:27;;;;;;;;;;;;;;;11.61;100.00;99628.16;6272899;22;19911;-85
2022/08/30 13:25:52;;;;;;;;;;;;;;;11.56;100.00;99627.53;6248172;22;20281;-85
2022/08/30 13:28:19;;;;;;;;;;;;;;;11.45;100.00;99626.28;6275364;22;19934;-84
2022/08/30 13:30:54;;;;;;;;;;;;;;;11.53;100.00;99625.03;6275353;22;19963;-86
2022/08/30 13:33:24;;;;;;;;;;;;;;;11.62;100.00;99624.59;6273738;22;19942;-89
2022/08/30 13:35:51;;;;;;;;;;;;;;;11.50;100.00;99619.88;6274649;22;19922;-86
2022/08/30 13:38:19;;;;;;;;;;;;;;;11.41;100.00;99614.09;6273685;22;19994;-84
2022/08/30 13:40:46;;;;;;;;;;;;;;;11.52;100.00;99616.22;6273012;22;19961;-85
2022/08/30 13:43:13;;;;;;;;;;;;;;;11.62;100.00;99601.53;6274159;22;19918;-85
2022/08/30 13:45:59;;;;;;;;;;;;;;;11.52;100.00;99605.63;6275017;22;19915;-86
2022/08/30 13:48:24;;;;;;;;;;;;;;;11.42;100.00;99601.69;6273101;22;20312;-86
2022/08/30 13:50:52;;;;;;;;;;;;;;;11.43;100.00;99604.25;6274479;22;19968;-84
2022/08/30 13:53:22;;;;;;;;;;;;;;;11.58;100.00;99602.66;6273224;22;19912;-84
2022/08/30 13:56:00;;;;;;;;;;;;;;;11.50;100.00;99596.00;6247721;22;19976;-85
2022/08/30 13:58:25;;;;;;;;;;;;;;;11.43;100.00;99595.44;6275017;22;19911;-85
2022/08/30 14:00:53;;;;;;;;;;;;;;;13.66;100.00;99584.41;6274296;22;19916;-84
2022/08/30 14:03:25;;;;;;;;;;;;;;;12.29;100.00;99592.88;6271027;22;19912;-85
2022/08/30 14:08:44;;;;;;;;;;;;;;;11.83;100.00;99585.47;6274916;22;20385;-84
2022/08/30 14:11:25;;;;;;;;;;;;;;;;;;;;;
2022/08/30 14:14:02;;;;;;;;;;;;;;;11.79;100.00;99581.25;6274771;22;19993;-85
2022/08/30 14:16:37;;;;;;;;;;;;;;;;;;;;;
2022/08/30 14:19:03;;;;;;;;;;;;;;;11.68;100.00;99580.94;6275427;22;20045;-86
2022/08/30 14:21:31;;;;;;;;;;;;;;;11.63;100.00;99578.50;6275450;22;19950;-88
2022/08/30 14:24:05;;;;;;;;;;;;;;;11.78;100.00;99569.78;6273870;22;19951;-86
2022/08/30 14:26:33;;;;;;;;;;;;;;;11.76;100.00;99565.50;6247212;22;20296;-84
2022/08/30 14:32:10;;;;;;;;;;;;;;;12.04;100.00;99562.28;6178986;23;19918;-86
2022/08/30 14:35:07;;;;;;;;;;;;;;;11.86;100.00;99557.94;6179396;23;20003;-88
2022/08/30 14:37:59;;;;;;;;;;;;;;;;;;;;;
2022/08/30 14:40:41;;;;;;;;;;;;;;;11.75;100.00;99545.19;6180676;23;20342;-85
2022/08/30 14:46:00;;;;;;;;;;;;;;;11.55;100.00;99548.84;6274385;22;19973;-85
2022/08/30 14:48:26;;;;;;;;;;;;;;;11.51;100.00;99544.66;6245223;22;19994;-86
2022/08/30 14:51:15;;;;;;;;;;;;;;;11.68;100.00;99546.44;6274151;22;20322;-87
2022/08/30 14:54:00;;;;;;;;;;;;;;;11.59;100.00;99545.97;6265172;22;19912;-85
2022/08/30 14:56:30;;;;;;;;;;;;;;;11.52;100.00;99546.34;6275335;22;19916;-85
2022/08/30 14:59:18;;;;;;;;;;;;;;;11.63;100.00;99546.66;6274329;22;19911;-86
2022/08/30 15:02:19;;;;;;;;;;;;;;;11.57;100.00;99547.00;6245210;22;20800;-92
2022/08/30 15:05:15;;;;;;;;;;;;;;;11.64;100.00;99548.41;6237830;22;20224;-92
2022/08/30 15:07:41;;;;;;;;;;;;;;;11.65;100.00;99539.50;6212723;23;19916;-86
2022/08/30 15:10:07;;;;;;;;;;;;;;;11.43;100.00;99539.75;6244983;22;20354;-85
2022/08/30 15:12:58;;;;;;;;;;;;;;;11.36;100.00;99536.53;6275658;22;19911;-87
2022/08/30 15:15:30;;;;;;;;;;;;;;;11.41;100.00;99542.47;6220264;22;20336;-87
2022/08/30 15:18:43;;;;;;;;;;;;;;;;;;;;;
2022/08/30 15:21:21;;;;;;;;;;;;;;;11.57;100.00;99537.25;6249818;22;19912;-86
2022/08/30 15:24:07;;;;;;;;;;;;;;;;;;;;;
2022/08/30 15:26:50;;;;;;;;;;;;;;;;;;;;;
2022/08/30 15:29:25;;;;;;;;;;;;;;;11.41;100.00;99537.16;6276377;22;19997;-94
2022/08/30 15:31:51;;;;;;;;;;;;;;;11.52;100.00;99533.97;6159426;23;20261;-89
2022/08/30 15:34:40;;;;;;;;;;;;;;;11.47;100.00;99532.47;6115255;23;19920;-86
2022/08/30 15:37:08;;;;;;;;;;;;;;;11.41;100.00;99531.84;6091183;23;19920;-86
2022/08/30 15:39:48;;;;;;;;;;;;;;;11.42;100.00;99520.31;6092517;23;19920;-86
2022/08/30 15:42:16;;;;;;;;;;;;;;;11.51;100.00;99521.63;6115749;23;19913;-86
2022/08/30 15:44:51;;;;;;;;;;;;;;;11.47;100.00;99520.06;6090539;23;19921;-86
2022/08/30 15:47:30;;;;;;;;;;;;;;;;;;;;;
2022/08/30 15:50:01;;;;;;;;;;;;;;;11.36;100.00;99523.28;6091397;23;19988;-87
2022/08/30 15:52:29;;;;;;;;;;;;;;;11.89;100.00;99517.94;6092164;23;19917;-86
2022/08/30 15:54:57;;;;;;;;;;;;;;;11.50;100.00;99521.72;6092662;23;19920;-87
2022/08/30 15:57:27;;;;;;;;;;;;;;;11.26;100.00;99529.97;6115188;23;19913;-85
2022/08/30 16:00:13;;;;;;;;;;;;;;;;;;;;;
2022/08/30 16:03:00;;;;;;;;;;;;;;;11.47;100.00;99524.50;6090967;23;19992;-86
2022/08/30 16:05:32;;;;;;;;;;;;;;;11.37;100.00;99524.97;6090008;23;19967;-86
2022/08/30 16:10:48;;;;;;;;;;;;;;;11.13;100.00;99526.22;6091844;23;20356;-87
2022/08/30 16:13:14;;;;;;;;;;;;;;;11.25;100.00;99530.91;6092421;23;19917;-87
2022/08/30 16:16:20;;;;;;;;;;;;;;;11.21;100.00;99532.00;6115154;23;19924;-89
2022/08/30 16:18:52;;;;;;;;;;;;;;;11.14;100.00;99527.94;6088609;23;19913;-86
2022/08/30 16:21:22;;;;;;;;;;;;;;;11.13;100.00;99536.81;6090524;23;20275;-86
2022/08/30 16:23:47;;;;;;;;;;;;;;;11.19;100.00;99529.41;6090967;23;20226;-86
2022/08/30 16:26:16;;;;;;;;;;;;;;;11.23;100.00;99532.75;6090386;23;20000;-85
2022/08/30 16:28:47;;;;;;;;;;;;;;;11.12;100.00;99530.66;6089886;23;20304;-88
2022/08/30 16:31:37;;;;;;;;;;;;;;;11.01;100.00;99522.34;6136694;22;19950;-86
2022/08/30 16:34:06;;;;;;;;;;;;;;;11.11;100.00;99528.09;6275324;22;19911;-86
2022/08/30 16:36:34;;;;;;;;;;;;;;;11.18;100.00;99529.47;6274294;22;19915;-86
2022/08/30 16:39:03;;;;;;;;;;;;;;;11.03;100.00;99528.47;6275788;22;19915;-86
2022/08/30 16:42:07;;;;;;;;;;;;;;;11.06;100.00;99523.84;6248533;22;20247;-86
2022/08/30 16:44:52;;;;;;;;;;;;;;;11.52;100.00;99522.47;6274817;22;19911;-86
2022/08/30 16:47:41;;;;;;;;;;;;;;;11.29;100.00;99527.16;6253202;22;19965;-87
2022/08/30 16:50:33;;;;;;;;;;;;;;;11.11;100.00;99528.09;6275573;22;20242;-88
2022/08/30 16:59:10;;;;;;;;;;;;;;;10.92;100.00;99536.06;6228626;22;19907;-86
2022/08/30 17:04:29;;;;;;;;;;;;;;;11.03;100.00;99533.75;6254619;22;19914;-87
2022/08/30 17:07:25;;;;;;;;;;;;;;;;;;;;;
2022/08/30 17:10:29;;;;;;;;;;;;;;;;;;;;;
2022/08/30 17:22:39;;;;;;;;;;;;;;;;;;;;;
2022/08/30 17:25:44;;;;;;;;;;;;;;;;;;;;;
2022/08/30 17:28:43;;;;;;;;;;;;;;;11.05;100.00;99529.22;6109769;23;19998;-87
2022/08/30 17:31:40;;;;;;;;;;;;;;;10.95;100.00;99538.56;6181040;23;19920;-91
2022/08/30 17:34:20;;;;;;;;;;;;;;;10.92;100.00;99542.22;6093160;23;19988;-87
2022/08/30 17:36:53;;;;;;;;;;;;;;;10.81;100.00;99542.72;6093190;23;19913;-87
2022/08/30 17:39:19;;;;;;;;;;;;;;;11.04;100.00;99540.75;6128971;23;20388;-87
2022/08/30 17:41:47;;;;;;;;;;;;;;;11.01;100.00;99548.84;6092026;23;19933;-87
2022/08/30 17:44:22;;;;;;;;;;;;;;;;;;;;;
2022/08/30 17:53:21;;;;;;;;;;;;;;;;;;;;;
2022/08/30 17:55:52;;;;;;;;;;;;;;;11.02;100.00;99558.53;6091791;23;19988;-87
2022/08/30 17:58:29;;;;;;;;;;;;;;;10.92;100.00;99555.47;6090730;23;20244;-86
2022/08/30 18:09:49;;;;;;;;;;;;;;;11.07;100.00;99575.06;6245055;23;19915;-87
2022/08/30 18:12:24;;;;;;;;;;;;;;;10.95;100.00;99562.44;6243509;23;19961;-86
2022/08/30 18:14:50;;;;;;;;;;;;;;;10.98;100.00;99575.53;6244740;23;19950;-87
2022/08/30 18:17:16;;;;;;;;;;;;;;;11.17;100.00;99567.53;6242231;23;19911;-87
2022/08/30 18:19:43;;;;;;;;;;;;;;;11.02;100.00;99571.78;6243369;23;19970;-87
2022/08/30 18:22:09;;;;;;;;;;;;;;;10.95;100.00;99581.00;6244897;23;19918;-87
2022/08/30 18:24:34;;;;;;;;;;;;;;;11.11;100.00;99581.97;6244713;23;20236;-87
2022/08/30 18:27:14;;;;;;;;;;;;;;;11.11;100.00;99586.41;6244819;23;19939;-87
2022/08/30 18:29:39;;;;;;;;;;;;;;;10.98;100.00;99581.69;6245712;23;19919;-86
2022/08/30 18:32:12;;;;;;;;;;;;;;;11.09;100.00;99589.16;6243125;23;19912;-87
2022/08/30 18:34:41;;;;;;;;;;;;;;;11.11;100.00;99586.41;6243306;23;19920;-88
2022/08/30 18:37:07;;;;;;;;;;;;;;;10.96;100.00;99586.22;6244908;23;19962;-87
2022/08/30 18:39:32;;;;;;;;;;;;;;;10.93;100.00;99585.50;6245631;23;19919;-91
2022/08/30 18:42:05;;;;;;;;;;;;;;;11.14;100.00;99588.94;6246502;23;19923;-87
2022/08/30 18:44:33;;;;;;;;;;;;;;;11.08;100.00;99587.41;6244622;23;19950;-87
2022/08/30 18:47:09;;;;;;;;;;;;;;;10.97;100.00;99589.72;6265287;22;20007;-87
2022/08/30 18:49:35;;;;;;;;;;;;;;;11.01;100.00;99594.81;6250735;22;20312;-87
2022/08/30 18:52:10;;;;;;;;;;;;;;;11.19;100.00;99589.56;6277484;22;19921;-87
2022/08/30 18:54:36;;;;;;;;;;;;;;;11.11;100.00;99589.06;6276762;22;19922;-86
2022/08/30 18:57:01;;;;;;;;;;;;;;;11.01;100.00;99601.88;6249242;22;19964;-86
2022/08/30 18:59:30;;;;;;;;;;;;;;;11.15;100.00;99596.78;6276918;22;19911;-86
2022/08/30 19:01:58;;;;;;;;;;;;;;;11.18;100.00;99598.44;6275994;22;20235;-86
2022/08/30 19:04:35;;;;;;;;;;;;;;;11.09;100.00;99608.56;6277652;22;19915;-86
2022/08/30 19:07:01;;;;;;;;;;;;;;;11.18;100.00;99609.03;6275944;22;19922;-87
2022/08/30 19:09:29;;;;;;;;;;;;;;;11.27;100.00;99608.59;6250031;22;20269;-87
2022/08/30 19:11:57;;;;;;;;;;;;;;;11.16;100.00;99605.63;6276923;22;19919;-86
2022/08/30 19:14:49;;;;;;;;;;;;;;;11.14;100.00;99611.00;6277177;22;19985;-90
2022/08/30 19:17:25;;;;;;;;;;;;;;;;;;;;;
2022/08/30 19:20:10;;;;;;;;;;;;;;;11.27;100.00;99616.56;6277401;22;19998;-86
2022/08/30 19:22:55;;;;;;;;;;;;;;;11.20;100.00;99617.78;6277180;22;19915;-86
2022/08/30 19:25:31;;;;;;;;;;;;;;;11.22;100.00;99618.59;6250293;22;20235;-85
2022/08/30 19:27:56;;;;;;;;;;;;;;;11.40;100.00;99625.63;6276529;22;19919;-85
2022/08/30 19:30:23;;;;;;;;;;;;;;;11.34;100.00;99615.31;6275680;22;20545;-86
2022/08/30 19:32:56;;;;;;;;;;;;;;;11.22;100.00;99616.78;6273794;22;19998;-86
2022/08/30 19:35:50;;;;;;;;;;;;;;;11.37;100.00;99611.66;6275273;22;19911;-87
2022/08/30 19:38:30;;;;;;;;;;;;;;;11.42;100.00;99618.47;6274585;22;20358;-91
2022/08/30 19:40:56;;;;;;;;;;;;;;;11.32;100.00;99613.69;6277231;22;19930;-86
2022/08/30 19:43:32;;;;;;;;;;;;;;;;;;;;;
2022/08/30 19:49:05;;;;;;;;;;;;;;;;;;;;;
2022/08/30 19:51:44;;;;;;;;;;;;;;;;;;;;;
2022/08/30 19:54:30;;;;;;;;;;;;;;;11.21;100.00;99624.81;6276823;22;19982;-88
2022/08/30 19:56:55;;;;;;;;;;;;;;;11.30;100.00;99627.03;6276827;22;20230;-87
2022/08/30 19:59:21;;;;;;;;;;;;;;;11.43;100.00;99622.81;6276729;22;19911;-86
2022/08/30 20:02:10;;;;;;;;;;;;;;;11.31;100.00;99631.38;6248555;22;20653;-86
2022/08/30 20:04:48;;;;;;;;;;;;;;;11.29;100.00;99630.59;6276739;22;19964;-86
2022/08/30 20:07:36;;;;;;;;;;;;;;;11.41;100.00;99619.41;6275282;22;19918;-86
2022/08/30 20:10:25;;;;;;;;;;;;;;;11.44;100.00;99624.56;6267003;22;19916;-86
2022/08/30 20:12:50;;;;;;;;;;;;;;;11.37;100.00;99628.44;6276738;22;20250;-88
2022/08/30 20:15:18;;;;;;;;;;;;;;;11.29;100.00;99637.69;6249594;22;19960;-86
2022/08/30 20:17:47;;;;;;;;;;;;;;;11.49;100.00;99620.81;6273973;22;19911;-85
2022/08/30 20:20:16;;;;;;;;;;;;;;;11.42;100.00;99634.41;6247714;22;19922;-86
2022/08/30 20:22:44;;;;;;;;;;;;;;;11.34;100.00;99636.53;6275744;22;19915;-86
2022/08/30 20:25:10;;;;;;;;;;;;;;;11.51;100.00;99629.56;6275336;22;20015;-86
2022/08/30 20:27:58;;;;;;;;;;;;;;;11.50;100.00;99641.09;6275224;22;20002;-86
2022/08/30 20:30:28;;;;;;;;;;;;;;;11.41;100.00;99643.28;6275011;22;19961;-86
2022/08/30 20:32:56;;;;;;;;;;;;;;;11.49;100.00;99631.41;6247765;22;19953;-86
2022/08/30 20:35:42;;;;;;;;;;;;;;;;;;;;;
2022/08/30 20:38:20;;;;;;;;;;;;;;;;;;;;;
2022/08/30 20:40:50;;;;;;;;;;;;;;;11.44;100.00;99642.28;6276159;22;19982;-86
2022/08/30 20:43:28;;;;;;;;;;;;;;;;;;;;;
2022/08/30 20:46:05;;;;;;;;;;;;;;;11.56;100.00;99636.34;6276009;22;19994;-87
2022/08/30 20:48:31;;;;;;;;;;;;;;;11.47;100.00;99642.09;6246834;22;20515;-86
2022/08/30 20:51:06;;;;;;;;;;;;;;;;;;;;;
2022/08/30 20:53:36;;;;;;;;;;;;;;;11.60;100.00;99637.94;6276457;22;19994;-90
2022/08/30 20:56:04;;;;;;;;;;;;;;;11.49;100.00;99645.56;6275896;22;19919;-86
2022/08/30 20:58:34;;;;;;;;;;;;;;;11.50;100.00;99641.94;6276129;22;19912;-86
2022/08/30 21:01:32;;;;;;;;;;;;;;;;;;;;;
2022/08/30 21:04:03;;;;;;;;;;;;;;;11.59;100.00;99653.91;6275625;22;20001;-86
2022/08/30 21:06:37;;;;;;;;;;;;;;;11.51;100.00;99646.34;6275353;22;19957;-86
2022/08/30 21:09:04;;;;;;;;;;;;;;;11.67;100.00;99642.94;6275759;22;20012;-86
2022/08/30 21:11:30;;;;;;;;;;;;;;;11.66;100.00;99649.16;6275947;22;19938;-85
2022/08/30 21:14:06;;;;;;;;;;;;;;;11.55;100.00;99655.00;6275396;22;19919;-86
2022/08/30 21:16:53;;;;;;;;;;;;;;;11.69;100.00;99636.59;6274945;22;20438;-86
2022/08/30 21:19:26;;;;;;;;;;;;;;;11.70;100.00;99654.25;6275068;22;19911;-86
2022/08/30 21:21:52;;;;;;;;;;;;;;;11.58;100.00;99644.22;6211952;23;19919;-86
2022/08/30 21:24:19;;;;;;;;;;;;;;;11.61;100.00;99649.38;6185758;23;19911;-86
2022/08/30 21:26:55;;;;;;;;;;;;;;;11.70;100.00;99651.59;6211944;23;20063;-86
2022/08/30 21:29:28;;;;;;;;;;;;;;;11.61;100.00;99644.94;6186640;23;19970;-86